Time;durP1;ratioP1;P1;durP2;ratioP2;P2;SDS_P1;SDS_P2;PMS_P1;PMS_P2;Temp;Humidity;BMP_temperature;BMP_pressure;BME280_temperature;BME280_humidity;BME280_pressure;Samples;Min_cycle;Max_cycle;Signal;HPM_P1;HPM_P2
2022/08/07 00:00:50;;;;;;;3.50;1.83;;;16.90;74.00;;;;;;4988494;28;20709;-70
2022/08/07 00:03:16;;;;;;;3.43;2.10;;;17.10;74.10;;;;;;4991777;28;20222;-70
2022/08/07 00:05:42;;;;;;;2.27;2.07;;;16.70;74.50;;;;;;4991159;28;20493;-72
2022/08/07 00:08:07;;;;;;;2.17;1.97;;;16.60;74.40;;;;;;4993441;28;20223;-75
2022/08/07 00:10:34;;;;;;;2.00;1.90;;;16.70;75.00;;;;;;4984660;28;20183;-70
2022/08/07 00:13:02;;;;;;;2.03;1.92;;;16.70;75.10;;;;;;4989710;28;20204;-71
2022/08/07 00:15:29;;;;;;;1.95;1.70;;;16.90;75.70;;;;;;4991369;28;20183;-69
2022/08/07 00:17:55;;;;;;;2.50;2.30;;;17.00;76.50;;;;;;4989446;28;20199;-70
2022/08/07 00:20:21;;;;;;;2.10;1.87;;;16.80;76.90;;;;;;4987226;28;20334;-71
2022/08/07 00:22:47;;;;;;;2.60;2.13;;;16.80;76.40;;;;;;4990830;28;20681;-71
2022/08/07 00:25:12;;;;;;;3.50;2.30;;;16.60;76.50;;;;;;4989721;28;20287;-72
2022/08/07 00:27:38;;;;;;;2.67;2.30;;;16.70;77.60;;;;;;4989373;28;20226;-70
2022/08/07 00:30:04;;;;;;;1.63;1.53;;;16.60;77.00;;;;;;4988340;28;20523;-69
2022/08/07 00:32:29;;;;;;;5.28;2.38;;;16.50;76.90;;;;;;4989856;28;20207;-70
2022/08/07 00:34:55;;;;;;;2.03;1.83;;;16.40;77.30;;;;;;4989518;28;21562;-73
2022/08/07 00:37:21;;;;;;;1.97;1.87;;;16.40;79.50;;;;;;4988026;28;20211;-70
2022/08/07 00:39:46;;;;;;;2.40;2.00;;;16.60;81.90;;;;;;4987780;28;20549;-70
2022/08/07 00:42:12;;;;;;;2.10;1.90;;;16.50;80.60;;;;;;4992499;28;20183;-71
2022/08/07 00:44:38;;;;;;;1.70;1.60;;;16.40;78.80;;;;;;4991449;28;20194;-72
2022/08/07 00:47:05;;;;;;;2.58;1.70;;;16.30;78.80;;;;;;4980281;28;20226;-72
2022/08/07 00:49:31;;;;;;;2.20;1.83;;;16.30;79.40;;;;;;4990414;28;20199;-71
2022/08/07 00:51:57;;;;;;;2.50;1.87;;;16.30;80.60;;;;;;4986557;28;20195;-70
2022/08/07 00:54:23;;;;;;;1.80;1.70;;;16.00;79.90;;;;;;4990777;28;20477;-72
2022/08/07 00:56:49;;;;;;;2.03;1.93;;;16.20;80.40;;;;;;4988636;28;20195;-75
2022/08/07 00:59:14;;;;;;;2.30;1.98;;;16.10;80.90;;;;;;4988771;28;20711;-71
2022/08/07 01:01:40;;;;;;;2.20;1.77;;;15.90;80.80;;;;;;4989309;28;20183;-70
2022/08/07 01:04:07;;;;;;;6.40;2.03;;;16.10;81.20;;;;;;4994700;28;20190;-70
2022/08/07 01:06:34;;;;;;;2.10;1.90;;;16.00;81.60;;;;;;4981090;28;20282;-70
2022/08/07 01:09:01;;;;;;;2.40;1.98;;;15.90;81.10;;;;;;4986437;28;20750;-71
2022/08/07 01:11:29;;;;;;;1.98;1.63;;;15.90;82.00;;;;;;4993157;28;20245;-70
2022/08/07 01:13:55;;;;;;;2.30;2.08;;;16.00;82.20;;;;;;4993865;28;20203;-70
2022/08/07 01:16:20;;;;;;;1.87;1.77;;;15.80;82.60;;;;;;4993463;28;20180;-71
2022/08/07 01:18:46;;;;;;;1.50;1.40;;;15.70;82.70;;;;;;4991674;28;20454;-70
2022/08/07 01:21:14;;;;;;;3.30;2.67;;;15.90;82.80;;;;;;4992701;28;20184;-70
2022/08/07 01:23:41;;;;;;;2.45;1.73;;;15.50;83.10;;;;;;4994428;28;20183;-69
2022/08/07 01:26:09;;;;;;;1.80;1.60;;;15.70;83.00;;;;;;4992404;28;20672;-69
2022/08/07 01:28:35;;;;;;;1.75;1.65;;;15.70;82.90;;;;;;4993932;28;20221;-72
2022/08/07 01:31:02;;;;;;;2.58;2.00;;;15.60;83.50;;;;;;4992124;28;20191;-70
2022/08/07 01:33:28;;;;;;;2.13;1.70;;;15.80;84.00;;;;;;4993726;28;20245;-69
2022/08/07 01:35:56;;;;;;;1.93;1.80;;;15.60;85.30;;;;;;4993191;28;20185;-72
2022/08/07 01:38:22;;;;;;;2.88;1.63;;;15.70;86.80;;;;;;4991716;28;20869;-70
2022/08/07 01:40:49;;;;;;;1.60;1.50;;;15.60;87.10;;;;;;4992878;28;20641;-71
2022/08/07 01:43:15;;;;;;;3.20;1.95;;;15.70;86.10;;;;;;5004796;28;20274;-72
2022/08/07 01:45:42;;;;;;;1.83;1.70;;;15.60;85.40;;;;;;4991358;28;20294;-70
2022/08/07 01:48:08;;;;;;;1.85;1.48;;;15.80;84.40;;;;;;4993141;28;20298;-71
2022/08/07 01:50:37;;;;;;;2.07;1.87;;;15.40;84.80;;;;;;4988404;28;20620;-70
2022/08/07 01:53:04;;;;;;;2.10;2.00;;;15.70;85.90;;;;;;4992012;28;20204;-70
2022/08/07 01:55:38;;;;;;;2.25;1.58;;;15.20;86.20;;;;;;4987101;28;20234;-72
2022/08/07 01:58:09;;;;;;;2.40;1.80;;;15.50;86.80;;;;;;4992420;28;20250;-71
2022/08/07 02:00:38;;;;;;;1.80;1.70;;;15.60;86.60;;;;;;4990173;28;20184;-70
2022/08/07 02:03:10;;;;;;;1.90;1.70;;;15.60;86.00;;;;;;4992170;28;20680;-69
2022/08/07 02:05:43;;;;;;;1.60;1.50;;;15.30;85.80;;;;;;4993185;28;20184;-71
2022/08/07 02:08:13;;;;;;;1.90;1.80;;;15.60;86.20;;;;;;4993154;28;20294;-75
2022/08/07 02:10:40;;;;;;;1.90;1.65;;;15.20;86.20;;;;;;4992518;28;20186;-73
2022/08/07 02:13:07;;;;;;;2.17;1.98;;;15.20;86.30;;;;;;4991867;28;20211;-69
2022/08/07 02:15:35;;;;;;;2.10;1.95;;;15.20;86.90;;;;;;4990953;28;20180;-71
2022/08/07 02:18:03;;;;;;;2.00;1.90;;;15.40;87.50;;;;;;4982936;28;20705;-72
2022/08/07 02:20:30;;;;;;;1.95;1.50;;;15.40;87.60;;;;;;4990450;28;20183;-71
2022/08/07 02:23:00;;;;;;;2.17;1.83;;;15.20;87.50;;;;;;4992491;28;20219;-71
2022/08/07 02:25:29;;;;;;;8.18;2.78;;;15.10;87.80;;;;;;4993571;28;20218;-72
2022/08/07 02:27:57;;;;;;;2.20;1.65;;;15.40;88.10;;;;;;4991201;28;20223;-70
2022/08/07 02:30:24;;;;;;;1.83;1.70;;;15.10;88.30;;;;;;4991346;28;20188;-71
2022/08/07 02:32:51;;;;;;;2.45;1.85;;;15.20;88.50;;;;;;4992784;28;20219;-71
2022/08/07 02:35:18;;;;;;;1.70;1.60;;;15.10;89.10;;;;;;4993008;28;20180;-71
2022/08/07 02:37:45;;;;;;;2.42;1.83;;;15.00;90.20;;;;;;4991365;28;20199;-70
2022/08/07 02:40:11;;;;;;;2.38;2.17;;;15.40;91.50;;;;;;4977835;28;20546;-73
2022/08/07 02:42:38;;;;;;;2.58;2.20;;;15.30;90.70;;;;;;5005022;28;20671;-70
2022/08/07 02:45:07;;;;;;;3.85;1.95;;;15.40;90.60;;;;;;4992569;28;20191;-70
2022/08/07 02:47:33;;;;;;;2.08;1.90;;;15.20;90.20;;;;;;4979371;28;20211;-70
2022/08/07 02:49:59;;;;;;;1.85;1.75;;;15.00;90.30;;;;;;4990791;28;20266;-73
2022/08/07 02:52:43;;;;;;;1.95;1.85;;;15.10;90.50;;;;;;4990029;28;20188;-70
2022/08/07 02:55:18;;;;;;;2.10;1.90;;;15.10;90.40;;;;;;4992807;28;20653;-69
2022/08/07 02:57:45;;;;;;;3.20;2.05;;;14.80;90.30;;;;;;5006431;28;20246;-72
2022/08/07 03:00:12;;;;;;;2.83;1.67;;;14.80;90.60;;;;;;4989744;28;20215;-69
2022/08/07 03:02:41;;;;;;;1.95;1.85;;;14.90;91.00;;;;;;4990617;28;20183;-71
2022/08/07 03:05:08;;;;;;;2.20;1.60;;;14.90;90.80;;;;;;4990921;28;20176;-71
2022/08/07 03:07:35;;;;;;;2.33;1.90;;;14.90;90.90;;;;;;4989814;28;20212;-73
2022/08/07 03:10:02;;;;;;;2.78;2.22;;;14.70;91.00;;;;;;4992219;28;20214;-70
2022/08/07 03:12:29;;;;;;;1.90;1.80;;;14.80;91.00;;;;;;4991821;28;20817;-70
2022/08/07 03:14:56;;;;;;;2.10;1.90;;;14.70;91.00;;;;;;4992131;28;20622;-74
2022/08/07 03:17:22;;;;;;;2.47;2.28;;;14.90;91.30;;;;;;4984079;28;20211;-71
2022/08/07 03:19:52;;;;;;;3.67;1.58;;;15.00;91.70;;;;;;4978977;28;20195;-71
2022/08/07 03:22:20;;;;;;;2.13;1.90;;;14.60;91.50;;;;;;4990531;28;20653;-72
2022/08/07 03:24:46;;;;;;;2.10;1.92;;;14.80;91.70;;;;;;4990504;28;20625;-70
2022/08/07 03:27:13;;;;;;;2.00;1.80;;;14.70;91.70;;;;;;4988049;28;20239;-71
2022/08/07 03:29:44;;;;;;;2.28;1.90;;;14.70;91.80;;;;;;4991629;28;20191;-69
2022/08/07 03:32:11;;;;;;;2.75;1.88;;;14.70;91.80;;;;;;4993864;28;20203;-72
2022/08/07 03:34:39;;;;;;;3.80;1.50;;;14.70;92.00;;;;;;4995285;28;20256;-71
2022/08/07 03:37:08;;;;;;;2.17;2.08;;;14.40;92.80;;;;;;4996903;28;20194;-72
2022/08/07 03:39:35;;;;;;;2.60;2.30;;;14.60;93.40;;;;;;4983913;28;20184;-71
2022/08/07 03:42:04;;;;;;;3.95;1.90;;;14.80;93.40;;;;;;4981677;28;20187;-71
2022/08/07 03:44:33;;;;;;;1.90;1.80;;;14.60;92.90;;;;;;4992223;28;20199;-69
2022/08/07 03:46:59;;;;;;;2.72;2.53;;;14.60;93.00;;;;;;4988938;28;20664;-74
2022/08/07 03:49:26;;;;;;;3.10;2.90;;;14.50;93.30;;;;;;4990528;28;20198;-71
2022/08/07 03:51:52;;;;;;;2.08;1.88;;;14.40;92.90;;;;;;4984238;28;20270;-70
2022/08/07 03:54:18;;;;;;;1.88;1.60;;;14.50;92.90;;;;;;4991614;28;20678;-69
2022/08/07 03:56:44;;;;;;;1.83;1.70;;;14.50;92.90;;;;;;4989384;28;20233;-70
2022/08/07 03:59:12;;;;;;;3.88;1.88;;;14.50;93.00;;;;;;4989034;28;20223;-70
2022/08/07 04:01:41;;;;;;;4.45;1.77;;;14.60;93.10;;;;;;4989138;28;20184;-72
2022/08/07 04:04:07;;;;;;;3.60;1.73;;;14.50;93.30;;;;;;4990396;28;20187;-71
2022/08/07 04:06:34;;;;;;;1.85;1.73;;;14.70;93.80;;;;;;4988372;28;20665;-70
2022/08/07 04:09:01;;;;;;;2.45;1.80;;;14.60;93.70;;;;;;4991354;28;20234;-70
2022/08/07 04:11:27;;;;;;;2.22;1.88;;;14.50;93.90;;;;;;4988799;28;20727;-70
2022/08/07 04:13:54;;;;;;;1.90;1.80;;;14.70;93.70;;;;;;4979082;28;20254;-71
2022/08/07 04:16:20;;;;;;;1.90;1.80;;;14.20;93.50;;;;;;4977441;28;20431;-70
2022/08/07 04:18:46;;;;;;;2.85;2.10;;;14.70;94.00;;;;;;4988128;28;20692;-73
2022/08/07 04:21:12;;;;;;;3.80;2.17;;;14.70;94.10;;;;;;4988047;28;20188;-71
2022/08/07 04:23:38;;;;;;;5.70;2.28;;;14.80;94.10;;;;;;4991382;28;20801;-69
2022/08/07 04:26:06;;;;;;;2.35;2.15;;;14.60;94.30;;;;;;4990085;28;20175;-70
2022/08/07 04:28:32;;;;;;;3.20;2.00;;;14.50;94.00;;;;;;4990858;28;20242;-69
2022/08/07 04:30:58;;;;;;;2.87;2.20;;;14.30;94.10;;;;;;4989649;28;20187;-69
2022/08/07 04:33:25;;;;;;;3.08;2.05;;;14.20;94.20;;;;;;5003617;28;20743;-70
2022/08/07 04:35:50;;;;;;;2.10;1.92;;;14.40;94.40;;;;;;4990548;28;20693;-74
2022/08/07 04:38:16;;;;;;;2.60;2.40;;;14.40;94.80;;;;;;4983080;28;20207;-69
2022/08/07 04:40:44;;;;;;;2.93;2.30;;;14.20;95.40;;;;;;5000599;28;20178;-74
2022/08/07 04:43:10;;;;;;;2.35;2.05;;;14.70;95.00;;;;;;4991911;28;20278;-74
2022/08/07 04:45:54;;;;;;;2.22;2.03;;;14.50;94.70;;;;;;4992746;28;20194;-75
2022/08/07 04:48:45;;;;;;;2.08;1.88;;;14.60;94.70;;;;;;4994189;28;20275;-75
2022/08/07 04:51:52;;;;;;;2.40;2.03;;;14.80;94.50;;;;;;4953893;28;20270;-73
2022/08/07 04:54:45;;;;;;;3.78;2.10;;;14.50;94.50;;;;;;4999894;28;20235;-69
2022/08/07 04:57:52;;;;;;;1.90;1.80;;;14.50;94.50;;;;;;4984935;28;20672;-69
2022/08/07 05:00:49;;;;;;;2.50;2.30;;;14.60;94.60;;;;;;4942995;28;20223;-71
2022/08/07 05:03:19;;;;;;;2.10;2.00;;;14.40;94.50;;;;;;4985180;28;20479;-70
2022/08/07 05:06:13;;;;;;;2.20;2.00;;;14.60;94.60;;;;;;4986991;28;20896;-71
2022/08/07 05:08:49;;;;;;;4.50;2.30;;;14.70;94.90;;;;;;4987583;28;20302;-70
2022/08/07 05:11:31;;;;;;;2.45;2.25;;;14.60;94.90;;;;;;4981470;28;20664;-70
2022/08/07 05:14:19;;;;;;;2.30;2.10;;;14.70;95.20;;;;;;4987631;28;20282;-70
2022/08/07 05:16:47;;;;;;;2.55;2.35;;;14.80;94.80;;;;;;4991048;28;20270;-70
2022/08/07 05:19:16;;;;;;;2.13;2.00;;;14.90;94.60;;;;;;4986713;28;20206;-71
2022/08/07 05:21:46;;;;;;;2.10;2.00;;;15.00;94.50;;;;;;4991248;28;20554;-70
2022/08/07 05:24:15;;;;;;;7.47;3.38;;;15.10;94.30;;;;;;4993017;28;20785;-71
2022/08/07 05:26:42;;;;;;;2.45;2.25;;;15.40;94.70;;;;;;4992566;28;20254;-71
2022/08/07 05:29:09;;;;;;;2.58;1.90;;;15.30;94.20;;;;;;4991243;28;20218;-71
2022/08/07 05:31:40;;;;;;;9.13;7.60;;;15.40;93.90;;;;;;4984367;28;20692;-71
2022/08/07 05:34:09;;;;;;;2.40;2.20;;;15.70;93.60;;;;;;4984814;28;20548;-69
2022/08/07 05:36:37;;;;;;;2.40;2.22;;;15.60;93.40;;;;;;4976149;28;20197;-70
2022/08/07 05:39:05;;;;;;;2.35;2.15;;;15.70;94.50;;;;;;4986356;28;20279;-70
2022/08/07 05:41:31;;;;;;;2.63;2.40;;;15.80;94.50;;;;;;4993823;28;20180;-70
2022/08/07 05:43:58;;;;;;;2.20;2.10;;;16.10;93.40;;;;;;4989360;28;20187;-70
2022/08/07 05:46:24;;;;;;;2.70;2.50;;;16.20;93.10;;;;;;4981989;28;20431;-71
2022/08/07 05:48:52;;;;;;;2.55;2.35;;;16.20;92.90;;;;;;4991125;28;20302;-66
2022/08/07 05:51:19;;;;;;;2.60;2.40;;;16.40;92.90;;;;;;4990096;28;20185;-68
2022/08/07 05:53:45;;;;;;;2.75;2.47;;;16.70;92.60;;;;;;4991197;28;20211;-66
2022/08/07 05:56:12;;;;;;;3.05;2.50;;;16.80;92.50;;;;;;4985081;28;20221;-65
2022/08/07 05:58:40;;;;;;;2.90;2.70;;;17.00;92.50;;;;;;4988862;28;20215;-66
2022/08/07 06:01:09;;;;;;;2.65;2.45;;;17.30;91.40;;;;;;4987223;28;20704;-67
2022/08/07 06:03:37;;;;;;;3.90;2.60;;;17.50;90.90;;;;;;4990880;28;20206;-65
2022/08/07 06:06:04;;;;;;;3.28;2.95;;;17.60;90.80;;;;;;4987299;28;20192;-64
2022/08/07 06:08:30;;;;;;;3.30;3.00;;;17.80;90.80;;;;;;4989934;28;20934;-64
2022/08/07 06:10:56;;;;;;;2.50;2.30;;;17.90;90.90;;;;;;4990955;28;20580;-64
2022/08/07 06:13:22;;;;;;;3.40;3.10;;;18.10;90.40;;;;;;4989577;28;20230;-66
2022/08/07 06:15:48;;;;;;;3.00;2.80;;;18.20;90.40;;;;;;4986459;28;20217;-66
2022/08/07 06:18:15;;;;;;;3.90;3.60;;;18.20;90.40;;;;;;4989460;28;20979;-66
2022/08/07 06:20:43;;;;;;;3.47;3.17;;;18.30;90.40;;;;;;4991139;28;20464;-66
2022/08/07 06:23:09;;;;;;;3.50;3.30;;;18.30;90.50;;;;;;4988527;28;20245;-66
2022/08/07 06:25:35;;;;;;;3.33;3.08;;;18.50;90.60;;;;;;4989434;28;20196;-66
2022/08/07 06:28:06;;;;;;;3.60;3.30;;;18.60;90.50;;;;;;4987044;28;20212;-66
2022/08/07 06:30:33;;;;;;;3.40;3.20;;;18.60;90.60;;;;;;4984091;28;20226;-70
2022/08/07 06:32:59;;;;;;;3.75;3.45;;;18.60;90.70;;;;;;4990639;28;20204;-66
2022/08/07 06:35:24;;;;;;;3.63;3.40;;;18.70;90.90;;;;;;4991221;28;20546;-67
2022/08/07 06:37:50;;;;;;;4.20;3.53;;;18.50;90.80;;;;;;4991575;28;20681;-68
2022/08/07 06:40:16;;;;;;;3.90;3.60;;;19.00;91.10;;;;;;4987968;28;20176;-66
2022/08/07 06:42:44;;;;;;;4.68;3.55;;;19.10;91.00;;;;;;4987812;28;20196;-66
2022/08/07 06:45:13;;;;;;;3.92;3.63;;;19.30;91.10;;;;;;4989200;28;20223;-66
2022/08/07 06:47:39;;;;;;;3.78;3.47;;;19.40;91.10;;;;;;4989200;28;20200;-68
2022/08/07 06:50:05;;;;;;;3.80;3.60;;;19.50;91.00;;;;;;4989591;28;20188;-67
2022/08/07 06:52:35;;;;;;;4.53;4.20;;;19.40;91.10;;;;;;4988703;28;20194;-67
2022/08/07 06:55:07;;;;;;;4.18;3.88;;;19.30;91.40;;;;;;4984544;28;20282;-66
2022/08/07 06:57:34;;;;;;;3.70;3.40;;;19.50;91.60;;;;;;4992942;28;20208;-68
2022/08/07 07:00:00;;;;;;;3.75;3.45;;;19.80;91.60;;;;;;4984524;28;20198;-67
2022/08/07 07:02:27;;;;;;;4.45;4.15;;;19.80;91.20;;;;;;4988913;28;20188;-65
2022/08/07 07:04:53;;;;;;;5.68;4.35;;;19.90;91.10;;;;;;4989045;28;20179;-65
2022/08/07 07:07:19;;;;;;;4.60;3.90;;;20.10;91.10;;;;;;4987963;28;20211;-67
2022/08/07 07:09:49;;;;;;;3.90;3.50;;;20.80;90.30;;;;;;4990637;28;20673;-67
2022/08/07 07:12:49;;;;;;;4.50;3.00;;;23.00;85.50;;;;;;4989970;28;20179;-67
2022/08/07 07:15:28;;;;;;;3.77;3.50;;;26.80;73.50;;;;;;4993535;28;20522;-65
2022/08/07 07:18:00;;;;;;;3.00;2.80;;;30.00;61.50;;;;;;4989593;28;20482;-66
2022/08/07 07:20:35;;;;;;;2.80;2.60;;;32.80;53.40;;;;;;4990330;28;20442;-66
2022/08/07 07:23:02;;;;;;;3.50;3.20;;;33.80;49.20;;;;;;4984899;28;20441;-66
2022/08/07 07:25:28;;;;;;;3.00;2.80;;;35.70;45.40;;;;;;4990961;28;20415;-66
2022/08/07 07:28:01;;;;;;;3.83;3.40;;;35.30;44.10;;;;;;4988445;28;20489;-67
2022/08/07 07:30:32;;;;;;;3.03;2.83;;;35.30;42.70;;;;;;4990189;28;20472;-67
2022/08/07 07:33:00;;;;;;;2.80;2.60;;;36.10;41.90;;;;;;4990193;28;21359;-67
2022/08/07 07:35:26;;;;;;;3.10;2.50;;;35.40;41.90;;;;;;4990743;28;20450;-68
2022/08/07 07:37:53;;;;;;;2.90;2.70;;;37.50;40.20;;;;;;4988265;28;20466;-66
2022/08/07 07:40:20;;;;;;;2.70;2.50;;;39.10;37.10;;;;;;4989695;28;20446;-66
2022/08/07 07:42:50;;;;;;;3.07;2.87;;;39.10;37.00;;;;;;4991311;28;20492;-66
2022/08/07 07:45:19;;;;;;;2.80;2.57;;;35.00;39.00;;;;;;4989864;28;20434;-67
2022/08/07 07:47:46;;;;;;;2.80;2.60;;;36.80;38.50;;;;;;4992129;28;20458;-67
2022/08/07 07:50:14;;;;;;;2.60;2.40;;;36.60;37.70;;;;;;4986825;28;20450;-68
2022/08/07 07:52:42;;;;;;;2.50;2.30;;;36.90;38.20;;;;;;4982057;28;20446;-71
2022/08/07 07:55:09;;;;;;;2.13;2.03;;;35.80;38.00;;;;;;4994197;28;20447;-65
2022/08/07 07:57:35;;;;;;;2.00;1.90;;;35.80;39.30;;;;;;4984579;28;20566;-68
2022/08/07 08:00:02;;;;;;;2.93;2.73;;;35.70;37.80;;;;;;5002382;28;20477;-68
2022/08/07 08:02:31;;;;;;;2.13;2.03;;;35.40;38.50;;;;;;4987624;28;20438;-67
2022/08/07 08:04:58;;;;;;;1.90;1.80;;;36.10;36.60;;;;;;4989765;28;20438;-70
2022/08/07 08:07:24;;;;;;;1.80;1.70;;;36.70;35.60;;;;;;4985485;28;21001;-73
2022/08/07 08:09:52;;;;;;;1.87;1.70;;;36.60;34.80;;;;;;4988237;28;20447;-66
2022/08/07 08:12:18;;;;;;;2.03;1.73;;;37.10;34.10;;;;;;4990197;28;20472;-65
2022/08/07 08:14:44;;;;;;;1.90;1.80;;;37.80;33.10;;;;;;4988264;28;21137;-67
2022/08/07 08:17:12;;;;;;;1.57;1.47;;;37.80;32.30;;;;;;4987687;28;20176;-67
2022/08/07 08:19:39;;;;;;;4.13;2.87;;;38.40;32.50;;;;;;4987597;28;20449;-66
2022/08/07 08:27:41;;;;;;;1.77;1.67;;;36.70;32.10;;;;;;4986671;28;20943;-67
2022/08/07 08:30:09;;;;;;;1.40;1.30;;;36.10;33.10;;;;;;4984688;28;20474;-68
2022/08/07 08:32:40;;;;;;;1.57;1.47;;;35.40;33.30;;;;;;4988257;28;20462;-68
2022/08/07 08:35:08;;;;;;;2.23;1.80;;;36.10;33.80;;;;;;4984106;28;20554;-68
2022/08/07 08:37:36;;;;;;;1.83;1.70;;;35.70;33.70;;;;;;4989067;28;20545;-65
2022/08/07 08:40:08;;;;;;;1.63;1.53;;;36.80;32.70;;;;;;4997993;28;20501;-68
2022/08/07 08:42:43;;;;;;;1.90;1.70;;;36.70;32.80;;;;;;4986700;28;20450;-68
2022/08/07 08:45:27;;;;;;;1.80;1.70;;;36.80;32.50;;;;;;4985427;28;20534;-70
2022/08/07 08:48:20;;;;;;;2.40;1.90;;;37.40;31.20;;;;;;4985490;28;20869;-72
2022/08/07 08:51:31;;;;;;;1.90;1.80;;;36.00;32.40;;;;;;4983097;28;20509;-69
2022/08/07 08:54:07;;;;;;;1.50;1.40;;;36.80;31.50;;;;;;4948753;28;20468;-70
2022/08/07 08:56:37;;;;;;;3.07;1.63;;;36.30;30.80;;;;;;4948229;28;20455;-65
2022/08/07 08:59:16;;;;;;;1.67;1.57;;;36.10;31.40;;;;;;4974634;28;20565;-66
2022/08/07 09:02:03;;;;;;;1.40;1.30;;;36.60;30.90;;;;;;4979735;28;20551;-65
2022/08/07 09:04:42;;;;;;;1.60;1.50;;;36.70;30.50;;;;;;4981751;28;20458;-64
2022/08/07 09:07:18;;;;;;;1.67;1.50;;;36.70;30.50;;;;;;4980860;28;20450;-64
2022/08/07 09:10:06;;;;;;;2.83;1.60;;;36.90;30.00;;;;;;4980897;28;20455;-63
2022/08/07 09:12:59;;;;;;;1.50;1.10;;;37.50;29.60;;;;;;4983003;28;20830;-63
2022/08/07 09:15:50;;;;;;;1.20;1.10;;;36.90;28.70;;;;;;4989875;28;20461;-68
2022/08/07 09:18:40;;;;;;;4.83;1.60;;;37.70;28.70;;;;;;4983767;28;20529;-62
2022/08/07 09:21:41;;;;;;;2.20;1.43;;;37.20;27.50;;;;;;4963906;28;20462;-66
2022/08/07 09:24:30;;;;;;;1.40;1.30;;;36.40;28.60;;;;;;4961182;28;20446;-68
2022/08/07 09:27:16;;;;;;;1.40;1.30;;;36.00;28.80;;;;;;4986797;28;20462;-67
2022/08/07 09:30:04;;;;;;;2.20;1.20;;;35.90;28.60;;;;;;4988367;28;20467;-67
2022/08/07 09:32:54;;;;;;;1.33;1.23;;;36.30;28.80;;;;;;4991379;28;20533;-67
2022/08/07 09:35:38;;;;;;;1.70;1.60;;;36.60;28.80;;;;;;4986516;28;20830;-64
2022/08/07 09:38:06;;;;;;;1.97;1.77;;;35.80;29.60;;;;;;4983114;28;20462;-69
2022/08/07 09:40:49;;;;;;;1.67;1.20;;;36.00;29.70;;;;;;4993332;28;20441;-68
2022/08/07 09:43:33;;;;;;;2.37;1.40;;;36.30;29.00;;;;;;4985828;28;20461;-70
2022/08/07 09:46:31;;;;;;;1.40;1.30;;;36.10;29.40;;;;;;4989049;28;20537;-70
2022/08/07 09:49:00;;;;;;;1.67;1.40;;;35.70;29.00;;;;;;4985437;28;20483;-66
2022/08/07 09:51:48;;;;;;;1.37;1.27;;;35.60;29.00;;;;;;4990953;28;20459;-66
2022/08/07 09:54:21;;;;;;;1.40;1.30;;;35.20;29.10;;;;;;4993157;28;20471;-66
2022/08/07 09:57:22;;;;;;;1.67;1.33;;;35.00;29.20;;;;;;4991389;28;20188;-67
2022/08/07 10:00:07;;;;;;;2.50;1.43;;;34.80;29.40;;;;;;4990432;28;20474;-66
2022/08/07 10:03:00;;;;;;;1.50;1.40;;;34.50;29.70;;;;;;4991294;28;20482;-66
2022/08/07 10:05:55;;;;;;;1.63;1.47;;;34.30;29.70;;;;;;4989721;28;20836;-67
2022/08/07 10:08:46;;;;;;;1.50;1.40;;;34.90;29.10;;;;;;4991515;28;20827;-67
2022/08/07 10:11:31;;;;;;;1.30;1.20;;;34.70;29.10;;;;;;4989510;28;20493;-67
2022/08/07 10:14:40;;;;;;;1.60;1.50;;;33.80;29.70;;;;;;4989173;28;20871;-67
2022/08/07 10:17:11;;;;;;;2.20;1.10;;;33.50;29.70;;;;;;4987483;28;20474;-66
2022/08/07 10:19:48;;;;;;;1.30;1.10;;;32.20;30.10;;;;;;4988663;28;21302;-66
2022/08/07 10:22:42;;;;;;;1.50;1.40;;;31.00;31.10;;;;;;4986986;28;20453;-65
2022/08/07 10:25:37;;;;;;;1.40;1.30;;;29.90;32.30;;;;;;4988514;28;20449;-66
2022/08/07 10:28:53;;;;;;;1.27;1.17;;;29.00;34.20;;;;;;4998091;28;20500;-65
2022/08/07 10:31:29;;;;;;;1.30;1.20;;;28.40;35.20;;;;;;4972184;28;21407;-66
2022/08/07 10:34:06;;;;;;;2.23;1.00;;;27.80;36.50;;;;;;4989985;28;20982;-66
2022/08/07 10:36:50;;;;;;;1.30;1.20;;;27.70;36.60;;;;;;4986445;28;20506;-66
2022/08/07 10:39:42;;;;;;;1.40;1.30;;;27.50;36.80;;;;;;4986952;28;20432;-66
2022/08/07 10:42:26;;;;;;;1.20;1.10;;;27.30;36.90;;;;;;4989000;28;20445;-66
2022/08/07 10:45:20;;;;;;;1.43;1.20;;;27.20;36.90;;;;;;4994703;28;20451;-66
2022/08/07 10:47:57;;;;;;;1.27;1.17;;;27.00;37.60;;;;;;4987815;28;20466;-66
2022/08/07 10:50:43;;;;;;;1.73;1.20;;;27.10;37.10;;;;;;4992104;28;20469;-66
2022/08/07 10:53:29;;;;;;;1.40;1.30;;;26.90;37.10;;;;;;4989007;28;20447;-66
2022/08/07 10:56:09;;;;;;;1.20;1.10;;;26.80;37.60;;;;;;4992204;28;20533;-65
2022/08/07 10:59:05;;;;;;;1.30;1.17;;;26.50;38.20;;;;;;4985670;28;21419;-66
2022/08/07 11:01:40;;;;;;;1.27;1.17;;;26.40;38.10;;;;;;4985804;28;20445;-66
2022/08/07 11:04:29;;;;;;;1.73;1.30;;;26.40;38.50;;;;;;4986076;28;20564;-66
2022/08/07 11:07:01;;;;;;;2.90;1.10;;;25.80;38.70;;;;;;4986610;28;20792;-66
2022/08/07 11:09:37;;;;;;;1.30;1.20;;;26.30;39.30;;;;;;4987267;28;20455;-66
2022/08/07 11:12:17;;;;;;;1.30;1.20;;;26.30;39.30;;;;;;4988738;28;20460;-66
2022/08/07 11:14:59;;;;;;;1.30;1.20;;;26.40;40.10;;;;;;4990506;28;20482;-66
2022/08/07 11:17:32;;;;;;;1.83;1.40;;;26.90;39.60;;;;;;4987995;28;20466;-66
2022/08/07 11:20:03;;;;;;;1.73;1.63;;;27.50;38.60;;;;;;4990262;28;20984;-65
2022/08/07 11:22:32;;;;;;;1.50;1.40;;;28.10;37.40;;;;;;4986706;28;20436;-66
2022/08/07 11:25:07;;;;;;;1.60;1.50;;;28.90;37.00;;;;;;4989068;28;20466;-66
2022/08/07 11:27:44;;;;;;;1.43;1.33;;;29.20;36.40;;;;;;4989598;28;20968;-66
2022/08/07 11:30:16;;;;;;;1.43;1.30;;;29.60;35.90;;;;;;4988636;28;20445;-66
2022/08/07 11:32:55;;;;;;;1.30;1.20;;;29.90;35.00;;;;;;4990312;28;20479;-66
2022/08/07 11:35:27;;;;;;;1.30;1.20;;;30.50;34.10;;;;;;4988856;28;20852;-66
2022/08/07 11:38:26;;;;;;;2.33;1.20;;;31.60;33.80;;;;;;4984925;28;20955;-66
2022/08/07 11:41:04;;;;;;;1.20;1.10;;;32.20;32.10;;;;;;4990718;28;20438;-67
2022/08/07 11:43:34;;;;;;;1.40;1.30;;;31.90;32.10;;;;;;4990042;28;20485;-65
2022/08/07 11:46:32;;;;;;;2.00;1.30;;;32.20;32.00;;;;;;4985736;28;20454;-66
2022/08/07 11:49:15;;;;;;;4.17;1.20;;;32.20;31.80;;;;;;4989521;28;20938;-66
2022/08/07 11:51:59;;;;;;;1.40;1.30;;;31.50;32.00;;;;;;4988083;28;20452;-65
2022/08/07 11:54:43;;;;;;;1.43;1.33;;;31.20;33.00;;;;;;4999264;28;20512;-65
2022/08/07 11:57:30;;;;;;;1.20;1.10;;;31.30;32.80;;;;;;4989292;28;20433;-66
2022/08/07 12:00:05;;;;;;;1.60;1.10;;;30.50;33.30;;;;;;4989940;28;20546;-66
2022/08/07 12:02:43;;;;;;;1.40;1.30;;;30.70;33.40;;;;;;4987740;28;20483;-66
2022/08/07 12:05:42;;;;;;;1.50;1.27;;;30.50;33.70;;;;;;4980362;28;20967;-66
2022/08/07 12:08:36;;;;;;;1.40;1.27;;;30.00;34.20;;;;;;4984624;28;20465;-66
2022/08/07 12:11:20;;;;;;;1.80;1.30;;;29.80;35.20;;;;;;4989741;28;20454;-66
2022/08/07 12:13:51;;;;;;;1.37;1.23;;;29.30;35.60;;;;;;4988567;28;20476;-65
2022/08/07 12:16:33;;;;;;;1.30;1.20;;;28.80;35.80;;;;;;4988514;28;20434;-66
2022/08/07 12:19:16;;;;;;;2.10;1.57;;;28.40;36.30;;;;;;4986792;28;20990;-65
2022/08/07 12:21:47;;;;;;;1.63;1.50;;;28.20;37.60;;;;;;4986875;28;20449;-66
2022/08/07 12:24:18;;;;;;;1.70;1.60;;;28.10;37.40;;;;;;4988962;28;20846;-65
2022/08/07 12:26:52;;;;;;;4.80;1.80;;;27.90;37.60;;;;;;4989611;28;20442;-67
2022/08/07 12:29:45;;;;;;;2.63;1.70;;;27.90;38.50;;;;;;4982261;28;20534;-65
2022/08/07 12:32:19;;;;;;;1.30;1.20;;;27.90;38.10;;;;;;4983304;28;20885;-65
2022/08/07 12:34:46;;;;;;;1.30;1.20;;;27.70;37.40;;;;;;4983229;28;20898;-65
2022/08/07 12:37:14;;;;;;;1.27;1.10;;;27.50;37.80;;;;;;4984094;28;20454;-66
2022/08/07 12:39:43;;;;;;;1.43;1.33;;;27.50;37.80;;;;;;4994993;28;20466;-66
2022/08/07 12:42:10;;;;;;;1.53;1.43;;;27.60;38.20;;;;;;4983650;28;20443;-66
2022/08/07 12:44:39;;;;;;;1.83;1.73;;;27.60;37.80;;;;;;4989720;28;20442;-69
2022/08/07 12:47:20;;;;;;;1.50;1.40;;;27.70;38.30;;;;;;4987631;28;20461;-69
2022/08/07 12:49:50;;;;;;;1.40;1.30;;;27.80;37.60;;;;;;4988349;28;20451;-69
2022/08/07 12:52:38;;;;;;;1.40;1.30;;;27.70;37.90;;;;;;4980960;28;20467;-69
2022/08/07 12:55:13;;;;;;;1.57;1.47;;;27.60;37.90;;;;;;4974697;28;20474;-69
2022/08/07 12:57:41;;;;;;;1.80;1.70;;;27.60;38.10;;;;;;4989809;28;20455;-68
2022/08/07 13:00:10;;;;;;;2.40;1.87;;;27.50;38.30;;;;;;4985895;28;20440;-69
2022/08/07 13:02:55;;;;;;;1.60;1.50;;;27.50;38.10;;;;;;4991949;28;20442;-69
2022/08/07 13:05:48;;;;;;;1.43;1.20;;;27.50;38.90;;;;;;4988915;28;21014;-69
2022/08/07 13:08:32;;;;;;;1.60;1.30;;;27.40;38.30;;;;;;4986997;28;20459;-68
2022/08/07 13:11:07;;;;;;;1.53;1.37;;;27.50;38.60;;;;;;4990991;28;20474;-68
2022/08/07 13:13:43;;;;;;;1.30;1.20;;;27.70;38.50;;;;;;4992117;28;20502;-68
2022/08/07 13:16:48;;;;;;;1.93;1.83;;;27.60;38.30;;;;;;4989560;28;20438;-68
2022/08/07 13:19:29;;;;;;;1.37;1.27;;;27.80;38.70;;;;;;4990334;28;21202;-68
2022/08/07 13:22:09;;;;;;;1.30;1.20;;;27.70;38.30;;;;;;4992200;28;20442;-68
2022/08/07 13:24:52;;;;;;;2.13;1.40;;;27.50;38.20;;;;;;4989183;28;20473;-68